createdAt,value
2016-06-06T08:40:10.714Z,77.36
2016-06-06T08:41:10.702Z,77.75
2016-06-06T08:42:10.673Z,78.52
2016-06-06T08:43:10.661Z,77.26
2016-06-06T08:44:11.069Z,76.4
2016-06-06T08:45:10.635Z,75.95
2016-06-06T08:46:10.621Z,75.76
2016-06-06T08:47:10.593Z,74.69
2016-06-06T08:48:10.580Z,73.58
2016-06-06T08:49:10.599Z,73
2016-06-06T08:50:10.554Z,72.71
2016-06-06T08:51:10.541Z,72.36
2016-06-06T08:52:10.529Z,72.06
2016-06-06T08:53:10.515Z,72.26
2016-06-06T08:54:10.502Z,72.26
2016-06-06T08:55:10.318Z,71.78
2016-06-06T08:56:10.460Z,71.39
2016-06-06T08:57:10.448Z,71.68
2016-06-06T08:58:10.434Z,71.58
2016-06-06T08:59:10.782Z,71.3
2016-06-06T09:00:10.815Z,70.65
2016-06-06T09:01:10.396Z,70.07
2016-06-06T09:02:10.384Z,70.17
2016-06-06T09:03:10.370Z,70.2
2016-06-06T09:04:10.357Z,69.92
2016-06-06T09:05:10.329Z,68.75
2016-06-06T09:06:10.316Z,67.53
2016-06-06T09:07:10.303Z,67.24
2016-06-06T09:08:10.289Z,67.53
2016-06-06T09:09:10.293Z,66.56
2016-06-06T09:10:10.280Z,65.72
2016-06-06T09:11:10.283Z,66.2
2016-06-06T09:12:10.254Z,65.53
2016-06-06T09:13:10.225Z,65.75
2016-06-06T09:14:10.213Z,64.5
2016-06-06T09:15:10.199Z,64.98
2016-06-06T09:16:10.202Z,64.2
2016-06-06T09:17:10.174Z,63.65
2016-06-06T09:18:10.177Z,64.04
2016-06-06T09:19:10.163Z,63.65
2016-06-06T09:20:10.135Z,62.98
2016-06-06T09:21:10.138Z,63.17
2016-06-06T09:22:10.109Z,62.79
2016-06-06T09:23:10.096Z,62.13
2016-06-06T09:24:10.083Z,62.43
2016-06-06T09:25:10.070Z,63.3
2016-06-06T09:26:10.057Z,62.55
2016-06-06T09:27:10.060Z,61.75
2016-06-06T09:28:10.032Z,62.13
2016-06-06T09:29:10.034Z,63.46
2016-06-06T09:30:10.021Z,63.46
2016-06-06T09:31:10.008Z,64.47
2016-06-06T09:32:09.979Z,63.2
2016-06-06T09:33:09.982Z,62.33
2016-06-06T09:34:09.954Z,63.49
2016-06-06T09:35:09.957Z,63.46
2016-06-06T09:36:09.928Z,65.56
2016-06-06T09:37:09.915Z,64.59
2016-06-06T09:38:09.917Z,65.56
2016-06-06T09:39:09.920Z,64.89
2016-06-06T09:40:09.892Z,63.95
2016-06-06T09:41:09.864Z,65.17
2016-06-06T09:42:09.866Z,67.18
2016-06-06T09:43:09.869Z,66.78
2016-06-06T09:44:09.871Z,68.05
2016-06-06T09:45:09.828Z,68.33
2016-06-06T09:46:09.814Z,68.43
2016-06-06T09:47:09.786Z,66.78
2016-06-06T09:48:09.788Z,65.56
2016-06-06T09:49:09.760Z,66.98
2016-06-06T09:50:09.746Z,67.56
2016-06-06T09:51:09.749Z,66.4
2016-06-06T09:52:09.721Z,66.6
2016-06-06T09:53:09.552Z,67.46
2016-06-06T09:54:09.758Z,67.56
2016-06-06T09:55:09.682Z,67.56
2016-06-06T09:56:09.669Z,67.95
2016-06-06T09:57:09.672Z,68.21
2016-06-06T09:58:09.643Z,69.17
2016-06-06T09:59:10.130Z,67.43
2016-06-06T10:00:09.618Z,67.43
2016-06-06T10:01:09.605Z,68.49
2016-06-06T10:02:09.592Z,68.59
2016-06-06T10:03:09.563Z,69.46
2016-06-06T10:04:09.550Z,69.17
2016-06-06T10:05:09.537Z,69.08
2016-06-06T10:06:09.540Z,69.27
2016-06-06T10:07:09.512Z,69.08
2016-06-06T10:08:09.498Z,69.37
2016-06-06T10:09:09.486Z,70.01
2016-06-06T10:10:09.472Z,70.14
2016-06-06T10:11:09.476Z,69.56
2016-06-06T10:12:09.447Z,69.92
2016-06-06T10:13:09.433Z,70.01
2016-06-06T10:14:09.546Z,70.98
2016-06-06T10:15:09.408Z,70.3
2016-06-06T10:16:09.395Z,71.08
2016-06-06T10:17:09.397Z,71.56
2016-06-06T10:18:09.369Z,72.33
2016-06-06T10:19:09.341Z,71.17
2016-06-06T10:20:09.328Z,71.66
2016-06-06T10:21:09.330Z,72.14
2016-06-06T10:22:09.302Z,71.84
2016-06-06T10:23:09.289Z,71.23
2016-06-06T10:24:09.276Z,71.84
2016-06-06T10:25:09.247Z,72.52
2016-06-06T10:26:09.266Z,71.75
2016-06-06T10:27:09.221Z,72.52
2016-06-06T10:28:09.207Z,72.91
2016-06-06T10:29:09.196Z,72.42
2016-06-06T10:30:09.182Z,73.46
2016-06-06T10:31:09.170Z,73.68
2016-06-06T10:32:09.156Z,72.52
2016-06-06T10:33:09.143Z,72.14
2016-06-06T10:34:09.131Z,71.75
2016-06-06T10:35:09.102Z,72.42
2016-06-06T10:36:09.089Z,72.33
2016-06-06T10:37:09.092Z,72.14
2016-06-06T10:38:09.063Z,72.52
2016-06-06T10:39:09.051Z,72.24
2016-06-06T10:40:08.881Z,73.04
2016-06-06T10:41:09.025Z,72.46
2016-06-06T10:42:09.011Z,72.75
2016-06-06T10:43:08.998Z,72.52
2016-06-06T10:44:08.830Z,73.39
2016-06-06T10:45:09.192Z,72.95
2016-06-06T10:46:08.944Z,72.95
2016-06-06T10:47:08.931Z,72.75
2016-06-06T10:48:08.919Z,74.01
2016-06-06T10:49:08.905Z,72.52
2016-06-06T10:50:08.892Z,71.69
2016-06-06T10:51:08.880Z,72.36
2016-06-06T10:52:08.852Z,71.88
2016-06-06T10:53:08.854Z,72.56
2016-06-06T10:54:08.825Z,72.95
2016-06-06T10:55:08.828Z,72.75
2016-06-06T10:56:08.799Z,72.36
2016-06-06T10:57:08.786Z,73.43
2016-06-06T10:58:08.773Z,73.43
2016-06-06T10:59:08.776Z,74.01
2016-06-06T11:00:08.745Z,72.3
2016-06-06T11:01:08.732Z,72.11
2016-06-06T11:02:08.719Z,72.21
2016-06-06T11:03:08.690Z,70.76
2016-06-06T11:04:08.677Z,71.44
2016-06-06T11:05:08.665Z,72.11
2016-06-06T11:06:08.668Z,72.21
2016-06-06T11:07:08.640Z,72.21
2016-06-06T11:08:08.626Z,70.95
2016-06-06T11:09:08.612Z,70.37
2016-06-06T11:10:08.443Z,72.4
2016-06-06T11:11:08.587Z,71.62
2016-06-06T11:12:08.574Z,71.92
2016-06-06T11:13:08.545Z,72.02
2016-06-06T11:14:08.548Z,71.59
2016-06-06T11:15:08.504Z,71.62
2016-06-06T11:16:08.506Z,72.3
2016-06-06T11:17:08.494Z,71.82
2016-06-06T11:18:08.480Z,72.21
2016-06-06T11:19:08.312Z,72.79
2016-06-06T11:20:08.455Z,71.92
2016-06-06T11:21:08.442Z,71.24
2016-06-06T11:22:08.414Z,71.72
2016-06-06T11:23:08.400Z,71.82
2016-06-06T11:24:08.403Z,72.21
2016-06-06T11:25:08.375Z,72.4
2016-06-06T11:26:08.361Z,72.79
2016-06-06T11:27:08.364Z,71.44
2016-06-06T11:28:08.336Z,70.66
2016-06-06T11:29:08.323Z,71.92
2016-06-06T11:30:08.326Z,72.44
2016-06-06T11:31:08.313Z,71.86
2016-06-06T11:32:08.284Z,71.86
2016-06-06T11:33:08.255Z,69.92
2016-06-06T11:34:08.243Z,70.11
2016-06-06T11:35:08.245Z,70.31
2016-06-06T11:36:08.217Z,70.6
2016-06-06T11:37:08.048Z,71.95
2016-06-06T11:38:08.191Z,71.76
2016-06-06T11:39:08.178Z,70.5
2016-06-06T11:40:08.165Z,69.82
2016-06-06T11:41:08.151Z,70.21
2016-06-06T11:42:08.139Z,70.79
2016-06-06T11:43:08.126Z,69.34
2016-06-06T11:44:08.348Z,70.11
2016-06-06T11:45:08.147Z,70.11
2016-06-06T11:46:08.087Z,71.28
2016-06-06T11:47:08.059Z,71.89
2016-06-06T11:48:08.045Z,71.99
2016-06-06T11:49:08.033Z,71.6
2016-06-06T11:50:08.020Z,70.44
2016-06-06T11:51:07.851Z,69.08
2016-06-06T11:52:07.994Z,69.37
2016-06-06T11:53:07.825Z,69.85
2016-06-06T11:54:07.969Z,69.08
2016-06-06T11:55:07.955Z,69.67
2016-06-06T11:56:07.942Z,68.89
2016-06-06T11:57:07.914Z,69.08
2016-06-06T11:58:07.901Z,69.85
2016-06-06T11:59:07.888Z,70.25
2016-06-06T12:00:08.015Z,70.54
2016-06-06T12:01:07.706Z,71.02
2016-06-06T12:02:07.693Z,71.5
2016-06-06T12:03:07.851Z,69.67
2016-06-06T12:04:07.824Z,70.25
2016-06-06T12:05:07.811Z,69.47
2016-06-06T12:06:07.798Z,71.31
2016-06-06T12:07:07.784Z,70.54
2016-06-06T12:08:07.772Z,71.12
2016-06-06T12:09:07.759Z,71.6
2016-06-06T12:10:07.745Z,71.5
2016-06-06T12:11:07.733Z,71.12
2016-06-06T12:12:07.720Z,71.12
2016-06-06T12:13:07.707Z,71.02
2016-06-06T12:14:07.679Z,72.31
2016-06-06T12:15:07.790Z,69.31
2016-06-06T12:16:07.653Z,70.25
2016-06-06T12:17:07.656Z,69.79
2016-06-06T12:18:07.626Z,69.79
2016-06-06T12:19:07.614Z,70.67
2016-06-06T12:20:07.617Z,70.67
2016-06-06T12:21:07.588Z,70.67
2016-06-06T12:22:07.575Z,68.63
2016-06-06T12:23:07.578Z,69.99
2016-06-06T12:24:07.549Z,69.5
2016-06-06T12:25:07.552Z,69.99
2016-06-06T12:26:07.522Z,69.31
2016-06-06T12:27:07.494Z,69.99
2016-06-06T12:28:07.497Z,69.12
2016-06-06T12:29:08.171Z,68.18
2016-06-06T12:30:07.346Z,68.05
2016-06-06T12:31:07.443Z,68.92
2016-06-06T12:32:07.430Z,69.34
2016-06-06T12:33:07.417Z,68.18
2016-06-06T12:34:07.419Z,68.18
2016-06-06T12:35:07.390Z,68.66
2016-06-06T12:36:07.379Z,69.54
2016-06-06T12:37:07.365Z,69.15
2016-06-06T12:38:07.352Z,69.93
2016-06-06T12:39:07.339Z,69.06
2016-06-06T12:40:07.326Z,69.73
2016-06-06T12:41:07.329Z,68.28
2016-06-06T12:42:07.301Z,69.44
2016-06-06T12:43:07.287Z,70.03
2016-06-06T12:44:07.338Z,68.96
2016-06-06T12:45:07.262Z,67.99
2016-06-06T12:46:07.092Z,68.47
2016-06-06T12:47:07.220Z,69.06
2016-06-06T12:48:07.207Z,68.96
2016-06-06T12:49:07.210Z,69.15
2016-06-06T12:50:07.025Z,69.24
2016-06-06T12:51:07.169Z,67.99
2016-06-06T12:52:07.172Z,67.99
2016-06-06T12:53:07.158Z,68.21
2016-06-06T12:54:07.130Z,68.41
2016-06-06T12:55:07.133Z,67.24
2016-06-06T12:56:07.104Z,67.54
2016-06-06T12:57:07.091Z,68.02
2016-06-06T12:58:07.077Z,68.51
2016-06-06T12:59:07.065Z,67.34
2016-06-06T13:00:07.052Z,68.12
2016-06-06T13:01:07.039Z,67.73
2016-06-06T13:02:07.027Z,67.24
2016-06-06T13:03:07.013Z,67.44
2016-06-06T13:04:07.000Z,67.24
2016-06-06T13:05:06.987Z,67.63
2016-06-06T13:06:06.975Z,67.63
2016-06-06T13:07:06.962Z,67.44
2016-06-06T13:08:06.932Z,66.37
2016-06-06T13:09:06.936Z,66.95
2016-06-06T13:10:06.923Z,67.14
2016-06-06T13:11:06.910Z,66.86
2016-06-06T13:12:06.896Z,65.43
2016-06-06T13:13:06.728Z,66.69
2016-06-06T13:14:08.496Z,66.89
2016-06-06T13:15:06.859Z,66.99
2016-06-06T13:16:06.845Z,66.5
2016-06-06T13:17:06.832Z,65.63
2016-06-06T13:18:06.803Z,66.3
2016-06-06T13:19:06.806Z,66.79
2016-06-06T13:20:06.778Z,65.95
2016-06-06T13:21:06.625Z,66.24
2016-06-06T13:22:06.752Z,66.53
2016-06-06T13:23:06.755Z,66.44
2016-06-06T13:24:06.742Z,66.63
2016-06-06T13:25:06.728Z,65.66
2016-06-06T13:26:06.700Z,65.47
2016-06-06T13:27:06.687Z,66.53
2016-06-06T13:28:06.674Z,65.95
2016-06-06T13:29:07.099Z,65.75
2016-06-06T13:30:06.664Z,65.85
2016-06-06T13:31:06.635Z,64.88
2016-06-06T13:32:06.638Z,65.17
2016-06-06T13:33:06.625Z,65.37
2016-06-06T13:34:06.612Z,64.98
2016-06-06T13:35:06.427Z,65.08
2016-06-06T13:36:06.586Z,65.27
2016-06-06T13:37:06.574Z,65.66
2016-06-06T13:38:06.545Z,64.01
2016-06-06T13:39:06.532Z,62.65
2016-06-06T13:40:06.519Z,64.4
2016-06-06T13:41:06.584Z,65.95
2016-06-06T13:42:06.587Z,65.95
2016-06-06T13:43:06.542Z,65.66
2016-06-06T13:44:06.780Z,65.95
2016-06-06T13:45:06.502Z,65.66
2016-06-06T13:46:06.332Z,65.37
2016-06-06T13:47:06.428Z,65.85
2016-06-06T13:48:06.416Z,67.8
2016-06-06T13:49:06.450Z,64.98
2016-06-06T13:50:06.389Z,65.27
2016-06-06T13:51:06.376Z,65.27
2016-06-06T13:52:06.364Z,67.11
2016-06-06T13:53:06.351Z,67.11
2016-06-06T13:54:06.353Z,66.82
2016-06-06T13:55:06.325Z,66.86
2016-06-06T13:56:06.312Z,63.75
2016-06-06T13:57:06.299Z,62.84
2016-06-06T13:58:06.302Z,62.29
2016-06-06T13:59:07.210Z,62.68
2016-06-06T14:00:07.182Z,62.58
2016-06-06T14:01:06.263Z,61.77
2016-06-06T14:02:06.235Z,63.23
2016-06-06T14:03:06.238Z,63.84
2016-06-06T14:04:06.052Z,63.94
2016-06-06T14:05:06.196Z,64.62
2016-06-06T14:06:06.183Z,64.43
2016-06-06T14:07:06.170Z,65.3
2016-06-06T14:08:06.172Z,64.04
2016-06-06T14:09:06.144Z,63.65
2016-06-06T14:10:06.146Z,62.68
2016-06-06T14:11:06.118Z,63.65
2016-06-06T14:12:06.105Z,63.45
2016-06-06T14:13:06.140Z,62.77
2016-06-06T14:14:06.360Z,62.68
2016-06-06T14:15:06.082Z,62.97
2016-06-06T14:16:06.069Z,62.48
2016-06-06T14:17:06.057Z,62.68
2016-06-06T14:18:06.043Z,63.36
2016-06-06T14:19:06.014Z,63.84
2016-06-06T14:20:06.017Z,63.75
2016-06-06T14:21:06.004Z,63.68
2016-06-06T14:22:06.006Z,64.53
2016-06-06T14:23:05.978Z,64.33
2016-06-06T14:24:05.965Z,64.17
2016-06-06T14:25:05.953Z,63.84
2016-06-06T14:26:05.940Z,63.39
2016-06-06T14:27:05.911Z,63.94
2016-06-06T14:28:05.913Z,64.36
2016-06-06T14:29:05.901Z,63.97
2016-06-06T14:30:06.075Z,64.53
2016-06-06T14:31:05.874Z,64.56
2016-06-06T14:32:05.862Z,63.65
2016-06-06T14:33:05.849Z,63.55
2016-06-06T14:34:05.836Z,63.55
2016-06-06T14:35:05.838Z,62.87
2016-06-06T14:36:05.826Z,62.87
2016-06-06T14:37:05.797Z,63.84
2016-06-06T14:38:05.785Z,62.38
2016-06-06T14:39:05.771Z,62.68
2016-06-06T14:40:05.759Z,63.36
2016-06-06T14:41:05.746Z,63.65
2016-06-06T14:42:05.732Z,64.23
2016-06-06T14:43:05.720Z,64.91
2016-06-06T14:44:06.051Z,63.36
2016-06-06T14:45:06.679Z,62.58
2016-06-06T14:46:05.681Z,62.35
2016-06-06T14:47:05.668Z,63.26
2016-06-06T14:48:05.498Z,63.36
2016-06-06T14:49:05.643Z,62.29
2016-06-06T14:50:05.629Z,63.84
2016-06-06T14:51:05.616Z,63.45
2016-06-06T14:52:05.603Z,63.36
2016-06-06T14:53:05.590Z,64.14
2016-06-06T14:54:05.577Z,63.75
2016-06-06T14:55:05.564Z,64.43
2016-06-06T14:56:05.551Z,63.65
2016-06-06T14:57:05.539Z,62.97
2016-06-06T14:58:05.525Z,63.07
2016-06-06T14:59:05.514Z,62.68
2016-06-06T15:00:06.062Z,62.35
2016-06-06T15:01:05.487Z,62.84
2016-06-06T15:02:05.474Z,63.65
2016-06-06T15:03:05.461Z,62.38
2016-06-06T15:04:05.448Z,62.65
2016-06-06T15:05:05.435Z,64.01
2016-06-06T15:06:05.438Z,63.91
2016-06-06T15:07:05.410Z,63.81
2016-06-06T15:08:05.396Z,64.4
2016-06-06T15:09:05.400Z,63.62
2016-06-06T15:10:05.371Z,62.35
2016-06-06T15:11:05.357Z,62.94
2016-06-06T15:12:05.344Z,63.52
2016-06-06T15:13:05.332Z,62.55
2016-06-06T15:14:05.178Z,62.65
2016-06-06T15:15:05.321Z,63.23
2016-06-06T15:16:05.309Z,62.84
2016-06-06T15:17:05.295Z,63.39
2016-06-06T15:18:05.282Z,63.62
2016-06-06T15:19:05.270Z,63.71
2016-06-06T15:20:05.241Z,64.01
2016-06-06T15:21:05.244Z,64.01
2016-06-06T15:22:05.215Z,63.81
2016-06-06T15:23:05.218Z,64.59
2016-06-06T15:24:05.190Z,64.88
2016-06-06T15:25:05.177Z,63.91
2016-06-06T15:26:05.023Z,64.2
2016-06-06T15:27:05.150Z,64.01
2016-06-06T15:28:05.169Z,63.81
2016-06-06T15:29:05.140Z,63.91
2016-06-06T15:30:05.831Z,64.11
2016-06-06T15:31:05.131Z,63.71
2016-06-06T15:32:05.102Z,64.36
2016-06-06T15:33:05.073Z,63.81
2016-06-06T15:34:05.060Z,64.01
2016-06-06T15:35:05.048Z,63.71
2016-06-06T15:36:05.050Z,64.01
2016-06-06T15:37:05.037Z,64.4
2016-06-06T15:38:05.024Z,63.32
2016-06-06T15:39:04.839Z,63.32
2016-06-06T15:40:04.999Z,63.81
2016-06-06T15:41:04.985Z,64.2
2016-06-06T15:42:04.957Z,63.62
2016-06-06T15:43:04.959Z,62.84
2016-06-06T15:44:04.946Z,62.45
2016-06-06T15:45:05.543Z,63.55
2016-06-06T15:46:04.905Z,63.42
2016-06-06T15:47:04.908Z,63.94
2016-06-06T15:48:04.895Z,62.48
2016-06-06T15:49:04.726Z,62.19
2016-06-06T15:50:04.869Z,62.29
2016-06-06T15:51:04.857Z,62.68
2016-06-06T15:52:04.843Z,62.38
2016-06-06T15:53:04.830Z,62.38
2016-06-06T15:54:04.801Z,62.68
2016-06-06T15:55:04.804Z,62.58
2016-06-06T15:56:04.792Z,62.58
2016-06-06T15:57:04.778Z,62.77
2016-06-06T15:58:04.765Z,62.29
2016-06-06T15:59:04.753Z,62.41
2016-06-06T16:00:04.584Z,61.9
2016-06-06T16:01:04.726Z,62.81
2016-06-06T16:02:04.714Z,62.03
2016-06-06T16:03:04.701Z,61.64
2016-06-06T16:04:04.688Z,61.74
2016-06-06T16:05:04.675Z,60.77
2016-06-06T16:06:04.662Z,58.62
2016-06-06T16:07:04.649Z,59.31
2016-06-06T16:08:04.636Z,59.41
2016-06-06T16:09:04.639Z,59.89
2016-06-06T16:10:04.611Z,59.11
2016-06-06T16:11:04.441Z,58.53
2016-06-06T16:12:04.600Z,58.43
2016-06-06T16:13:04.572Z,58.92
2016-06-06T16:14:04.559Z,58.53
2016-06-06T16:15:04.405Z,58.62
2016-06-06T16:16:04.533Z,59.14
2016-06-06T16:17:04.535Z,57.78
2016-06-06T16:18:04.507Z,57.59
2016-06-06T16:19:04.510Z,57.87
2016-06-06T16:20:04.497Z,57.68
2016-06-06T16:21:04.484Z,58.72
2016-06-06T16:22:04.471Z,59.11
2016-06-06T16:23:04.458Z,57.68
2016-06-06T16:24:04.445Z,57.75
2016-06-06T16:25:04.432Z,58.62
2016-06-06T16:26:04.419Z,58.95
2016-06-06T16:27:04.406Z,58.62
2016-06-06T16:28:04.393Z,58.14
2016-06-06T16:29:04.381Z,58.14
2016-06-06T16:30:04.242Z,57.85
2016-06-06T16:31:04.354Z,57.85
2016-06-06T16:32:04.342Z,59.14
2016-06-06T16:33:04.344Z,58.56
2016-06-06T16:34:04.331Z,57.39
2016-06-06T16:35:04.318Z,58.07
2016-06-06T16:36:04.306Z,57.65
2016-06-06T16:37:04.292Z,57.49
2016-06-06T16:38:04.280Z,57.17
2016-06-06T16:39:04.267Z,57.46
2016-06-06T16:40:04.253Z,57.46
2016-06-06T16:41:04.241Z,57.78
2016-06-06T16:42:04.228Z,58.04
2016-06-06T16:43:04.219Z,57.46
2016-06-06T16:44:04.212Z,57.97
2016-06-06T16:45:04.219Z,57.78
2016-06-06T16:46:04.211Z,58.46
2016-06-06T16:47:04.188Z,57.97
2016-06-06T16:48:04.177Z,58.17
2016-06-06T16:49:04.197Z,57.78
2016-06-06T16:50:04.169Z,58.07
2016-06-06T16:51:04.158Z,57.97
2016-06-06T16:52:04.146Z,57.68
2016-06-06T16:53:04.135Z,58.07
2016-06-06T16:54:04.122Z,58.07
2016-06-06T16:55:04.111Z,57.87
2016-06-06T16:56:04.098Z,59.23
2016-06-06T16:57:04.086Z,58.36
2016-06-06T16:58:04.074Z,58.85
2016-06-06T16:59:04.060Z,57.87
2016-06-06T17:00:04.517Z,58.85
2016-06-06T17:01:04.036Z,58.43
2016-06-06T17:02:04.023Z,57.39
2016-06-06T17:03:04.011Z,57.75
2016-06-06T17:04:03.997Z,57.65
2016-06-06T17:05:04.000Z,58.23
2016-06-06T17:06:03.986Z,58.72
2016-06-06T17:07:03.959Z,59.31
2016-06-06T17:08:03.961Z,58.72
2016-06-06T17:09:03.948Z,58.92
2016-06-06T17:10:03.936Z,59.5
2016-06-06T17:11:03.922Z,57.75
2016-06-06T17:12:03.910Z,57.56
2016-06-06T17:13:03.897Z,57.85
2016-06-06T17:14:03.883Z,57.85
2016-06-06T17:15:04.214Z,58.72
2016-06-06T17:16:03.858Z,58.21
2016-06-06T17:17:03.844Z,58.79
2016-06-06T17:18:03.832Z,59.18
2016-06-06T17:19:03.835Z,59.18
2016-06-06T17:20:03.806Z,58.98
2016-06-06T17:21:03.809Z,57.82
2016-06-06T17:22:03.624Z,58.59
2016-06-06T17:23:03.768Z,58.23
2016-06-06T17:24:03.754Z,58.31
2016-06-06T17:25:03.741Z,58.21
2016-06-06T17:26:03.728Z,57.62
2016-06-06T17:27:03.715Z,58.11
2016-06-06T17:28:03.703Z,57.82
2016-06-06T17:29:03.720Z,58.31
2016-06-06T17:30:03.693Z,58.69
2016-06-06T17:31:03.695Z,57.82
2016-06-06T17:32:03.666Z,58.69
2016-06-06T17:33:03.654Z,59.08
2016-06-06T17:34:03.640Z,59.05
2016-06-06T17:35:03.627Z,58.4
2016-06-06T17:36:03.599Z,59.28
2016-06-06T17:37:03.602Z,59.54
2016-06-06T17:38:03.588Z,60.02
2016-06-06T17:39:03.576Z,60.61
2016-06-06T17:40:03.563Z,60.71
2016-06-06T17:41:03.549Z,61.77
2016-06-06T17:42:03.537Z,61.87
2016-06-06T17:43:03.524Z,62.26
2016-06-06T17:44:03.527Z,62.13
2016-06-06T17:45:03.560Z,62.35
2016-06-06T17:46:03.486Z,62.32
2016-06-06T17:47:03.472Z,62.71
2016-06-06T17:48:03.459Z,62.42
2016-06-06T17:49:03.306Z,62.42
2016-06-06T17:50:03.433Z,63.39
2016-06-06T17:51:03.420Z,62.98
2016-06-06T17:52:03.407Z,63.75
2016-06-06T17:53:03.395Z,63.95
2016-06-06T17:54:03.382Z,63.95
2016-06-06T17:55:03.368Z,63.75
2016-06-06T17:56:03.356Z,64.23
2016-06-06T17:57:03.343Z,64.43
2016-06-06T17:58:03.345Z,64.53
2016-06-06T17:59:03.317Z,64.88
2016-06-06T18:00:03.148Z,64.98
2016-06-06T18:01:03.307Z,65.37
2016-06-06T18:02:03.294Z,64.88
2016-06-06T18:03:03.265Z,65.56
2016-06-06T18:04:03.096Z,65.27
2016-06-06T18:05:03.239Z,65.56
2016-06-06T18:06:03.226Z,65.72
2016-06-06T18:07:03.214Z,65.63
2016-06-06T18:08:03.200Z,66.4
2016-06-06T18:09:03.188Z,66.69
2016-06-06T18:10:03.175Z,66.79
2016-06-06T18:11:03.161Z,66.3
2016-06-06T18:12:03.149Z,66.5
2016-06-06T18:13:03.136Z,66.5
2016-06-06T18:14:03.123Z,66.85
2016-06-06T18:15:03.110Z,66.75
2016-06-06T18:16:03.097Z,67.05
2016-06-06T18:17:03.085Z,67.53
2016-06-06T18:18:03.071Z,67.53
2016-06-06T18:19:03.058Z,67.24
2016-06-06T18:20:03.046Z,67.24
2016-06-06T18:21:03.017Z,67.82
2016-06-06T18:22:03.019Z,67.72
2016-06-06T18:23:02.991Z,68.02
2016-06-06T18:24:02.978Z,68.12
2016-06-06T18:25:02.966Z,67.88
2016-06-06T18:26:02.951Z,67.92
2016-06-06T18:27:02.939Z,67.98
2016-06-06T18:28:02.926Z,68.76
2016-06-06T18:29:02.913Z,68.66
2016-06-06T18:30:03.947Z,67.69
2016-06-06T18:31:02.888Z,69.05
2016-06-06T18:32:02.875Z,68.95
2016-06-06T18:33:02.861Z,69.24
2016-06-06T18:34:02.692Z,69.24
2016-06-06T18:35:02.836Z,69.34
2016-06-06T18:36:02.823Z,69.05
2016-06-06T18:37:02.794Z,69.34
2016-06-06T18:38:02.797Z,69.15
2016-06-06T18:39:02.769Z,69.01
2016-06-06T18:40:02.771Z,69.63
2016-06-06T18:41:02.586Z,70.08
2016-06-06T18:42:02.730Z,70.08
2016-06-06T18:43:02.716Z,69.89
2016-06-06T18:44:02.704Z,69.5
2016-06-06T18:45:02.972Z,70.47
2016-06-06T18:46:02.678Z,70.56
2016-06-06T18:47:02.665Z,71.14
2016-06-06T18:48:02.652Z,70.47
2016-06-06T18:49:02.483Z,70.86
2016-06-06T18:50:02.626Z,71.01
2016-06-06T18:51:02.597Z,71.2
2016-06-06T18:52:02.632Z,71.59
2016-06-06T18:53:02.588Z,71.69
2016-06-06T18:54:02.559Z,71.88
2016-06-06T18:55:02.545Z,71.78
2016-06-06T18:56:02.533Z,72.08
2016-06-06T18:57:02.535Z,71.88
2016-06-06T18:58:02.507Z,71.4
2016-06-06T18:59:02.494Z,71.98
2016-06-06T19:00:02.481Z,72.36
2016-06-06T19:01:02.467Z,72.27
2016-06-06T19:02:02.455Z,72.75
2016-06-06T19:03:02.426Z,72.27
2016-06-06T19:04:02.414Z,72.27
2016-06-06T19:05:02.400Z,72.75
2016-06-06T19:06:02.387Z,72.72
2016-06-06T19:07:02.375Z,73.1
2016-06-06T19:08:02.362Z,72.62
2016-06-06T19:09:02.349Z,73.2
2016-06-06T19:10:02.336Z,73.1
2016-06-06T19:11:02.339Z,73.01
2016-06-06T19:12:02.311Z,72.81
2016-06-06T19:13:02.125Z,73.1
2016-06-06T19:14:02.284Z,73.97
2016-06-06T19:15:02.255Z,73.68
2016-06-06T19:16:02.244Z,74.36
2016-06-06T19:17:03.824Z,73.88
2016-06-06T19:18:02.217Z,74.42
2016-06-06T19:19:02.204Z,73.74
2016-06-06T19:20:02.191Z,73.84
2016-06-06T19:21:02.163Z,74.71
2016-06-06T19:22:02.150Z,74.23
2016-06-06T19:23:02.137Z,75.1
2016-06-06T19:24:02.124Z,74.81
2016-06-06T19:25:02.110Z,74.71
2016-06-06T19:26:02.098Z,75.39
2016-06-06T19:27:02.085Z,75.39
2016-06-06T19:28:02.056Z,75.29
2016-06-06T19:29:02.043Z,75.29
2016-06-06T19:30:02.031Z,75.87
2016-06-06T19:31:02.018Z,75.78
2016-06-06T19:32:02.004Z,76.74
2016-06-06T19:33:01.992Z,76.55
2016-06-06T19:34:01.979Z,76.22
2016-06-06T19:35:01.981Z,76.32
2016-06-06T19:36:01.953Z,76.22
2016-06-06T19:37:01.925Z,76.22
2016-06-06T19:38:01.928Z,76.7
2016-06-06T19:39:01.914Z,76.61
2016-06-06T19:40:01.886Z,76.61
2016-06-06T19:41:01.873Z,77
2016-06-06T19:42:01.859Z,76.8
2016-06-06T19:43:01.847Z,77
2016-06-06T19:44:01.834Z,77.57
2016-06-06T19:45:01.805Z,77.48
2016-06-06T19:46:01.792Z,77.67
2016-06-06T19:47:01.780Z,77.67
2016-06-06T19:48:01.766Z,77.44
2016-06-06T19:49:02.207Z,77.83
2016-06-06T19:50:01.740Z,77.53
2016-06-06T19:51:01.727Z,77.44
2016-06-06T19:52:01.699Z,77.53
2016-06-06T19:53:01.702Z,77.63
2016-06-06T19:54:01.673Z,77.73
2016-06-06T19:55:01.676Z,77.63
2016-06-06T19:56:01.647Z,77.63
2016-06-06T19:57:01.635Z,77.63
2016-06-06T19:58:01.606Z,78.02
2016-06-06T19:59:01.593Z,78.02
2016-06-06T20:00:01.579Z,78.02
2016-06-06T20:01:01.567Z,78.21
2016-06-06T20:02:01.554Z,78.11
2016-06-06T20:03:01.525Z,78.02
2016-06-06T20:04:01.512Z,78.11
2016-06-06T20:05:01.516Z,78.5
2016-06-06T20:06:01.330Z,78.56
2016-06-06T20:07:01.474Z,78.66
2016-06-06T20:08:01.461Z,78.66
2016-06-06T20:09:01.448Z,78.75
2016-06-06T20:10:01.434Z,78.66
2016-06-06T20:11:01.406Z,78.75
2016-06-06T20:12:01.394Z,78.66
2016-06-06T20:13:01.224Z,79.33
2016-06-06T20:14:01.367Z,79.33
2016-06-06T20:15:01.339Z,79.33
2016-06-06T20:16:01.325Z,79.72
2016-06-06T20:17:01.313Z,79.81
2016-06-06T20:18:01.300Z,80
2016-06-06T20:19:01.288Z,80.39
2016-06-06T20:20:01.274Z,80
2016-06-06T20:21:02.590Z,80.1
2016-06-06T20:22:01.233Z,80.49
2016-06-06T20:23:01.219Z,80.87
2016-06-06T20:24:01.207Z,81.22
2016-06-06T20:25:01.038Z,80.45
2016-06-06T20:26:01.165Z,80.16
2016-06-06T20:27:01.152Z,81.12
2016-06-06T20:28:01.140Z,81.02
2016-06-06T20:29:01.127Z,81.41
2016-06-06T20:30:01.113Z,81.99
2016-06-06T20:31:01.085Z,81.32
2016-06-06T20:32:01.073Z,81.7
2016-06-06T20:33:01.060Z,82.28
2016-06-06T20:34:01.047Z,82.18
2016-06-06T20:35:01.471Z,82.48
2016-06-06T20:36:00.879Z,82.48
2016-06-06T20:37:00.992Z,83.05
2016-06-06T20:38:00.979Z,82.86
2016-06-06T20:39:00.966Z,83.15
2016-06-06T20:40:00.953Z,83.15
2016-06-06T20:41:00.925Z,83.53
2016-06-06T20:42:00.912Z,83.92
2016-06-06T20:43:00.898Z,83.92
2016-06-06T20:44:00.886Z,83.92
2016-06-06T20:45:00.872Z,83.92
2016-06-06T20:46:00.860Z,83.83
2016-06-06T20:47:00.847Z,84.01
2016-06-06T20:48:00.834Z,84.5
2016-06-06T20:49:00.805Z,84.59
2016-06-06T20:50:00.839Z,85.23
2016-06-06T20:51:01.451Z,84.98
2016-06-06T20:52:00.751Z,85.08
2016-06-06T20:53:00.738Z,85.23
2016-06-06T20:54:00.725Z,85.33
2016-06-06T20:55:00.696Z,85.23
2016-06-06T20:56:00.683Z,85.52
2016-06-06T20:57:00.671Z,85.13
2016-06-06T20:58:00.658Z,85.42
2016-06-06T20:59:00.645Z,85.52
2016-06-06T21:00:00.632Z,85.42
2016-06-06T21:01:00.604Z,85.13
2016-06-06T21:02:00.607Z,85.81
2016-06-06T21:03:00.578Z,85.91
2016-06-06T21:04:00.564Z,85.52
2016-06-06T21:05:00.379Z,86
2016-06-06T21:06:01.477Z,86.19
2016-06-06T21:07:00.510Z,85.81
2016-06-06T21:08:00.481Z,86.29
2016-06-06T21:09:00.468Z,86.58
2016-06-06T21:10:00.315Z,86.1
2016-06-06T21:11:00.443Z,86.19
2016-06-06T21:12:00.430Z,86.68
2016-06-06T21:13:00.417Z,86.96
2016-06-06T21:14:00.389Z,86.68
2016-06-06T21:15:00.376Z,87.26
2016-06-06T21:16:00.362Z,87.83
2016-06-06T21:17:03.022Z,87.74
2016-06-06T21:18:00.321Z,87.45
2016-06-06T21:19:01.465Z,87.54
2016-06-06T21:20:02.497Z,88.12
2016-06-06T21:21:00.875Z,88.02
2016-06-06T21:22:00.253Z,88.12
2016-06-06T21:23:00.256Z,88.12
2016-06-06T21:24:00.227Z,88.12
2016-06-06T21:25:00.215Z,88.46
2016-06-06T21:26:00.186Z,88.65
2016-06-06T21:27:00.174Z,88.95
2016-06-06T21:28:00.160Z,88.85
2016-06-06T21:29:00.147Z,89.04
2016-06-06T21:30:00.119Z,88.65
2016-06-06T21:31:00.106Z,89.14
2016-06-06T21:32:00.093Z,88.56
2016-06-06T21:33:00.095Z,89.04
2016-06-06T21:34:00.067Z,88.85